createdAt,value
2022-08-16T00:02:55.524Z,2.30
2022-08-16T00:05:58.692Z,2.20
2022-08-16T00:09:01.643Z,1.98
2022-08-16T00:12:05.705Z,1.75
2022-08-16T00:15:17.213Z,1.90
2022-08-16T00:18:22.329Z,2.10
2022-08-16T00:21:32.800Z,2.38
2022-08-16T00:24:35.465Z,2.10
2022-08-16T00:27:38.502Z,1.92
2022-08-16T00:30:42.694Z,2.13
2022-08-16T00:33:50.113Z,2.40
2022-08-16T00:36:55.974Z,1.80
2022-08-16T00:39:59.039Z,2.07
2022-08-16T00:43:02.212Z,2.25
2022-08-16T00:46:32.845Z,2.15
2022-08-16T00:49:44.882Z,2.17
2022-08-16T00:52:59.331Z,2.00
2022-08-16T00:59:10.469Z,2.80
2022-08-16T01:02:31.583Z,2.40
2022-08-16T01:05:36.677Z,2.70
2022-08-16T01:08:42.054Z,2.10
2022-08-16T01:11:53.758Z,1.90
2022-08-16T01:14:59.939Z,2.50
2022-08-16T01:18:05.829Z,2.07
2022-08-16T01:21:22.408Z,2.23
2022-08-16T01:24:45.296Z,2.50
2022-08-16T01:27:54.451Z,2.30
2022-08-16T01:30:58.248Z,2.37
2022-08-16T01:34:00.973Z,2.50
2022-08-16T01:37:09.335Z,2.30
2022-08-16T01:40:15.429Z,2.70
2022-08-16T01:43:18.521Z,2.33
2022-08-16T01:46:37.228Z,2.90
2022-08-16T01:50:43.608Z,2.50
2022-08-16T01:53:07.335Z,2.37
2022-08-16T01:56:23.349Z,2.27
2022-08-16T01:59:28.451Z,2.47
2022-08-16T02:02:31.167Z,2.63
2022-08-16T02:05:34.845Z,2.42
2022-08-16T02:08:37.761Z,2.57
2022-08-16T02:11:48.643Z,2.50
2022-08-16T02:14:55.777Z,2.80
2022-08-16T02:18:01.423Z,2.65
2022-08-16T02:21:05.757Z,2.67
2022-08-16T02:24:17.610Z,2.57
2022-08-16T02:27:32.617Z,2.33
2022-08-16T02:30:36.961Z,2.47
2022-08-16T02:33:50.234Z,2.30
2022-08-16T02:36:53.538Z,2.43
2022-08-16T02:39:57.730Z,2.33
2022-08-16T02:43:26.721Z,3.22
2022-08-16T02:46:33.654Z,3.00
2022-08-16T02:50:30.577Z,2.30
2022-08-16T02:52:59.706Z,2.45
2022-08-16T02:56:02.443Z,2.90
2022-08-16T02:59:11.611Z,2.78
2022-08-16T03:02:17.226Z,2.40
2022-08-16T03:05:19.889Z,2.65
2022-08-16T03:08:49.711Z,2.50
2022-08-16T03:11:47.675Z,3.00
2022-08-16T03:17:54.799Z,2.80
2022-08-16T03:20:59.740Z,2.97
2022-08-16T03:24:03.437Z,2.70
2022-08-16T03:27:06.430Z,2.97
2022-08-16T03:30:17.455Z,2.83
2022-08-16T03:33:20.906Z,3.00
2022-08-16T03:36:30.864Z,2.53
2022-08-16T03:39:34.064Z,2.83
2022-08-16T03:43:00.440Z,2.97
2022-08-16T03:46:10.755Z,2.47
2022-08-16T03:49:13.826Z,2.50
2022-08-16T03:52:16.623Z,2.90
2022-08-16T03:55:23.260Z,3.07
2022-08-16T03:58:36.925Z,2.60
2022-08-16T04:01:41.381Z,2.80
2022-08-16T04:04:44.418Z,2.63
2022-08-16T04:07:47.025Z,3.25
2022-08-16T04:10:55.381Z,2.50
2022-08-16T04:14:31.011Z,3.00
2022-08-16T04:17:24.822Z,2.60
2022-08-16T04:20:33.744Z,2.97
2022-08-16T04:23:38.824Z,2.70
2022-08-16T04:26:42.588Z,2.80
2022-08-16T04:29:49.091Z,2.90
2022-08-16T04:32:57.136Z,2.70
2022-08-16T04:36:03.823Z,3.00
2022-08-16T04:39:07.826Z,2.83
2022-08-16T04:42:11.677Z,3.40
2022-08-16T04:48:28.459Z,3.30
2022-08-16T04:51:36.285Z,2.70
2022-08-16T04:54:40.567Z,2.77
2022-08-16T04:57:53.281Z,2.40
2022-08-16T05:00:56.637Z,2.50
2022-08-16T05:04:01.831Z,3.13
2022-08-16T05:07:04.997Z,2.83
2022-08-16T05:10:19.642Z,3.88
2022-08-16T05:13:39.935Z,2.97
2022-08-16T05:16:44.636Z,2.90
2022-08-16T05:23:01.147Z,2.75
2022-08-16T05:26:03.954Z,2.92
2022-08-16T05:29:11.143Z,2.47
2022-08-16T05:32:34.129Z,2.70
2022-08-16T05:35:40.755Z,2.67
2022-08-16T05:38:45.306Z,2.40
2022-08-16T05:41:52.176Z,3.10
2022-08-16T05:44:55.170Z,3.10
2022-08-16T05:48:01.703Z,2.73
2022-08-16T05:51:06.041Z,2.70
2022-08-16T05:54:14.038Z,2.63
2022-08-16T05:57:18.120Z,2.90
2022-08-16T06:00:22.694Z,2.70
2022-08-16T06:03:25.938Z,3.03
2022-08-16T06:06:33.751Z,2.77
2022-08-16T06:09:43.619Z,2.60
2022-08-16T06:12:47.286Z,2.40
2022-08-16T06:15:55.490Z,2.93
2022-08-16T06:18:58.943Z,3.60
2022-08-16T06:22:08.922Z,3.13
2022-08-16T06:25:36.107Z,2.60
2022-08-16T06:28:42.959Z,3.40
2022-08-16T06:31:50.438Z,3.20
2022-08-16T06:34:55.535Z,2.67
2022-08-16T06:38:01.923Z,3.10
2022-08-16T06:41:13.572Z,2.53
2022-08-16T06:44:21.035Z,3.27
2022-08-16T06:47:53.523Z,2.43
2022-08-16T06:50:51.949Z,2.67
2022-08-16T06:53:56.039Z,2.53
2022-08-16T06:56:59.545Z,2.63
2022-08-16T07:03:27.690Z,2.45
2022-08-16T07:06:28.944Z,2.67
2022-08-16T07:09:33.323Z,2.50
2022-08-16T07:12:47.299Z,2.73
2022-08-16T07:16:01.770Z,2.77
2022-08-16T07:22:07.258Z,2.95
2022-08-16T07:25:31.359Z,3.05
2022-08-16T07:28:35.475Z,2.87
2022-08-16T07:34:48.179Z,2.58
2022-08-16T07:37:51.593Z,3.10
2022-08-16T07:41:00.373Z,3.00
2022-08-16T07:44:16.586Z,2.77
2022-08-16T07:47:20.197Z,2.77
2022-08-16T07:50:57.729Z,3.20
2022-08-16T07:54:09.204Z,3.15
2022-08-16T07:57:14.671Z,3.15
2022-08-16T08:00:21.916Z,3.43
2022-08-16T08:03:35.964Z,3.80
2022-08-16T08:06:42.489Z,3.03
2022-08-16T08:09:45.937Z,3.03
2022-08-16T08:12:50.812Z,3.03
2022-08-16T08:15:58.045Z,3.05
2022-08-16T08:19:02.812Z,2.85
2022-08-16T08:22:06.818Z,2.42
2022-08-16T08:25:10.249Z,3.13
2022-08-16T08:28:17.705Z,3.17
2022-08-16T08:31:20.376Z,2.95
2022-08-16T08:34:23.790Z,2.97
2022-08-16T08:37:27.676Z,3.40
2022-08-16T08:40:50.706Z,3.80
2022-08-16T08:43:55.104Z,2.85
2022-08-16T08:47:00.329Z,3.25
2022-08-16T08:50:05.402Z,3.40
2022-08-16T08:53:08.577Z,3.38
2022-08-16T08:56:22.540Z,3.28
2022-08-16T08:59:27.882Z,3.20
2022-08-16T09:02:31.043Z,3.17
2022-08-16T09:05:35.721Z,2.97
2022-08-16T09:08:39.868Z,3.08
2022-08-16T09:11:58.341Z,3.30
2022-08-16T09:15:11.558Z,3.25
2022-08-16T09:18:25.114Z,3.50
2022-08-16T09:21:31.299Z,3.08
2022-08-16T09:24:51.874Z,2.97
2022-08-16T09:27:57.666Z,3.07
2022-08-16T09:31:07.238Z,3.28
2022-08-16T09:34:19.240Z,3.03
2022-08-16T09:37:29.794Z,2.97
2022-08-16T09:40:43.833Z,3.08
2022-08-16T09:43:58.105Z,3.08
2022-08-16T09:47:10.368Z,2.70
2022-08-16T09:50:14.596Z,2.88
2022-08-16T09:53:26.757Z,2.92
2022-08-16T09:56:32.175Z,2.90
2022-08-16T09:59:38.367Z,2.97
2022-08-16T10:02:44.473Z,3.15
2022-08-16T10:05:51.651Z,3.15
2022-08-16T10:09:05.571Z,3.47
2022-08-16T10:12:42.554Z,3.25
2022-08-16T10:15:55.504Z,3.00
2022-08-16T10:19:06.646Z,2.70
2022-08-16T10:22:12.698Z,3.20
2022-08-16T10:27:16.170Z,2.75
2022-08-16T10:28:42.128Z,3.20
2022-08-16T10:31:46.748Z,2.72
2022-08-16T10:34:58.005Z,3.35
2022-08-16T10:38:01.096Z,2.53
2022-08-16T10:41:04.227Z,3.17
2022-08-16T10:44:09.529Z,3.50
2022-08-16T10:47:12.803Z,3.15
2022-08-16T10:50:18.963Z,3.30
2022-08-16T10:53:23.018Z,2.90
2022-08-16T10:56:52.266Z,2.72
2022-08-16T10:59:53.227Z,2.50
2022-08-16T11:03:01.795Z,3.00
2022-08-16T11:06:15.411Z,2.90
2022-08-16T11:09:25.256Z,3.15
2022-08-16T11:12:31.485Z,2.63
2022-08-16T11:15:35.258Z,2.72
2022-08-16T11:18:54.991Z,2.85
2022-08-16T11:32:20.314Z,3.42
2022-08-16T11:39:00.080Z,3.20
2022-08-16T11:42:03.280Z,3.33
2022-08-16T11:48:33.326Z,2.95
2022-08-16T11:51:35.938Z,2.92
2022-08-16T11:54:40.747Z,3.42
2022-08-16T11:57:43.671Z,3.30
2022-08-16T12:00:51.709Z,2.67
2022-08-16T12:03:56.987Z,2.63
2022-08-16T12:06:59.958Z,2.83
2022-08-16T12:10:06.515Z,3.00
2022-08-16T12:13:11.455Z,3.58
2022-08-16T12:16:17.661Z,3.20
2022-08-16T12:19:33.947Z,2.65
2022-08-16T12:22:38.582Z,2.50
2022-08-16T12:25:42.690Z,2.63
2022-08-16T12:28:56.241Z,2.67
2022-08-16T12:32:26.746Z,2.70
2022-08-16T12:38:41.147Z,2.80
2022-08-16T12:41:49.490Z,2.40
2022-08-16T12:44:53.026Z,2.50
2022-08-16T12:48:33.474Z,2.30
2022-08-16T12:51:59.935Z,2.53
2022-08-16T12:55:01.310Z,2.33
2022-08-16T12:58:06.055Z,2.67
2022-08-16T13:01:17.517Z,2.58
2022-08-16T13:04:24.932Z,2.17
2022-08-16T13:07:28.115Z,1.88
2022-08-16T13:10:41.333Z,2.08
2022-08-16T13:13:47.276Z,1.98
2022-08-16T13:16:57.565Z,1.83
2022-08-16T13:20:09.435Z,2.03
2022-08-16T13:23:14.460Z,1.80
2022-08-16T13:26:20.403Z,1.85
2022-08-16T13:29:25.027Z,1.70
2022-08-16T13:32:42.493Z,2.00
2022-08-16T13:35:56.140Z,2.08
2022-08-16T13:39:00.937Z,2.30
2022-08-16T13:42:04.311Z,2.05
2022-08-16T13:45:09.965Z,2.13
2022-08-16T13:48:21.944Z,1.90
2022-08-16T13:51:30.641Z,1.90
2022-08-16T13:54:33.612Z,1.60
2022-08-16T13:57:53.061Z,2.20
2022-08-16T14:01:01.090Z,1.90
2022-08-16T14:04:05.682Z,2.00
2022-08-16T14:07:10.289Z,1.88
2022-08-16T14:10:15.298Z,2.10
2022-08-16T14:13:21.104Z,1.85
2022-08-16T14:16:33.670Z,2.42
2022-08-16T14:19:37.270Z,1.92
2022-08-16T14:22:54.514Z,1.80
2022-08-16T14:25:57.634Z,1.63
2022-08-16T14:29:03.800Z,2.03
2022-08-16T14:32:09.295Z,1.77
2022-08-16T14:35:18.449Z,2.10
2022-08-16T14:38:23.824Z,2.10
2022-08-16T14:41:27.487Z,1.85
2022-08-16T14:44:30.889Z,1.90
2022-08-16T14:47:37.192Z,2.10
2022-08-16T14:50:40.106Z,2.00
2022-08-16T14:53:49.638Z,1.77
2022-08-16T14:56:55.453Z,2.00
2022-08-16T15:00:04.684Z,2.00
2022-08-16T15:03:11.539Z,1.80
2022-08-16T15:06:14.672Z,1.67
2022-08-16T15:09:19.425Z,1.67
2022-08-16T15:12:33.421Z,1.70
2022-08-16T15:15:41.184Z,1.90
2022-08-16T15:18:46.700Z,2.10
2022-08-16T15:21:53.824Z,1.92
2022-08-16T15:24:59.349Z,2.08
2022-08-16T15:28:05.349Z,1.85
2022-08-16T15:31:13.066Z,2.10
2022-08-16T15:34:21.851Z,1.77
2022-08-16T15:37:42.668Z,1.73
2022-08-16T15:40:56.684Z,2.00
2022-08-16T15:44:05.508Z,1.70
2022-08-16T15:47:15.683Z,2.08
2022-08-16T15:50:20.011Z,1.55
2022-08-16T15:53:24.846Z,1.88
2022-08-16T15:56:28.366Z,2.00
2022-08-16T15:59:34.837Z,1.80
2022-08-16T16:03:01.149Z,1.75
2022-08-16T16:06:05.629Z,1.95
2022-08-16T16:09:08.860Z,1.80
2022-08-16T16:12:41.883Z,2.03
2022-08-16T16:15:39.549Z,2.25
2022-08-16T16:18:42.651Z,2.33
2022-08-16T16:21:53.967Z,1.98
2022-08-16T16:24:57.496Z,1.92
2022-08-16T16:28:00.930Z,1.67
2022-08-16T16:31:05.727Z,1.70
2022-08-16T16:34:10.019Z,1.98
2022-08-16T16:37:15.832Z,2.00
2022-08-16T16:40:28.947Z,2.00
2022-08-16T16:43:36.210Z,2.10
2022-08-16T16:46:43.076Z,1.92
2022-08-16T16:49:46.635Z,2.00
2022-08-16T16:52:53.811Z,1.83
2022-08-16T16:55:56.510Z,1.98
2022-08-16T16:59:01.672Z,2.03
2022-08-16T17:02:38.881Z,2.00
2022-08-16T17:05:32.429Z,2.30
2022-08-16T17:08:37.849Z,2.03
2022-08-16T17:11:48.674Z,2.58
2022-08-16T17:14:58.439Z,2.40
2022-08-16T17:18:04.403Z,2.30
2022-08-16T17:21:29.108Z,2.40
2022-08-16T17:24:39.883Z,2.17
2022-08-16T17:27:43.598Z,2.45
2022-08-16T17:30:54.179Z,2.58
2022-08-16T17:33:59.145Z,2.30
2022-08-16T17:37:08.001Z,2.22
2022-08-16T17:40:19.231Z,2.70
2022-08-16T17:43:44.203Z,2.33
2022-08-16T17:46:51.909Z,2.50
2022-08-16T17:49:56.902Z,2.50
2022-08-16T17:53:00.023Z,2.55
2022-08-16T17:56:06.247Z,2.72
2022-08-16T17:59:09.190Z,2.33
2022-08-16T18:02:42.518Z,2.65
2022-08-16T18:05:35.750Z,2.72
2022-08-16T18:08:39.497Z,2.80
2022-08-16T18:11:44.622Z,3.17
2022-08-16T18:14:51.099Z,3.05
2022-08-16T18:17:55.686Z,3.20
2022-08-16T18:21:16.586Z,2.85
2022-08-16T18:24:20.060Z,2.75
2022-08-16T18:27:27.245Z,2.67
2022-08-16T18:30:30.859Z,3.35
2022-08-16T18:33:42.765Z,3.22
2022-08-16T18:36:46.764Z,2.80
2022-08-16T18:39:49.902Z,3.83
2022-08-16T18:42:57.864Z,2.95
2022-08-16T18:46:01.301Z,3.58
2022-08-16T18:49:04.617Z,3.35
2022-08-16T18:52:09.215Z,3.85
2022-08-16T18:55:13.832Z,3.05
2022-08-16T18:58:18.941Z,3.08
2022-08-16T19:01:22.380Z,3.10
2022-08-16T19:04:56.023Z,3.55
2022-08-16T19:10:53.136Z,3.30
2022-08-16T19:13:59.077Z,3.97
2022-08-16T19:17:01.938Z,5.95
2022-08-16T19:20:10.504Z,5.47
2022-08-16T19:23:16.106Z,5.00
2022-08-16T19:26:25.992Z,4.75
2022-08-16T19:29:30.700Z,4.22
2022-08-16T19:32:34.140Z,3.97
2022-08-16T19:35:37.536Z,3.77
2022-08-16T19:38:42.163Z,3.60
2022-08-16T19:41:52.063Z,3.00
2022-08-16T19:45:01.856Z,3.00
2022-08-16T19:48:05.666Z,3.20
2022-08-16T19:51:08.431Z,3.47
2022-08-16T19:54:11.128Z,5.90
2022-08-16T19:57:14.296Z,3.55
2022-08-16T20:00:19.097Z,3.80
2022-08-16T20:03:23.972Z,3.53
2022-08-16T20:06:32.111Z,3.23
2022-08-16T20:09:42.261Z,3.80
2022-08-16T20:13:02.524Z,3.10
2022-08-16T20:16:08.868Z,3.27
2022-08-16T20:19:11.659Z,3.47
2022-08-16T20:22:51.774Z,3.00
2022-08-16T20:25:49.870Z,3.80
2022-08-16T20:28:54.811Z,3.23
2022-08-16T20:31:59.597Z,3.07
2022-08-16T20:35:03.310Z,3.30
2022-08-16T20:38:06.976Z,3.30
2022-08-16T20:41:10.054Z,3.43
2022-08-16T20:44:13.909Z,2.97
2022-08-16T20:47:18.010Z,3.03
2022-08-16T20:50:22.416Z,3.40
2022-08-16T20:53:25.128Z,3.23
2022-08-16T20:56:27.890Z,3.20
2022-08-16T20:59:30.907Z,2.97
2022-08-16T21:02:34.949Z,3.00
2022-08-16T21:05:40.884Z,3.17
2022-08-16T21:08:51.775Z,2.78
2022-08-16T21:11:57.587Z,2.75
2022-08-16T21:15:05.402Z,3.07
2022-08-16T21:18:09.472Z,3.00
2022-08-16T21:21:12.852Z,2.73
2022-08-16T21:24:16.045Z,2.83
2022-08-16T21:27:19.891Z,3.30
2022-08-16T21:30:31.058Z,2.87
2022-08-16T21:33:37.027Z,2.67
2022-08-16T21:36:39.855Z,3.63
2022-08-16T21:39:42.604Z,3.08
2022-08-16T21:42:45.417Z,2.95
2022-08-16T21:45:54.182Z,3.40
2022-08-16T21:48:59.987Z,3.50
2022-08-16T21:52:03.119Z,5.40
2022-08-16T21:55:07.727Z,5.60
2022-08-16T21:58:10.662Z,3.60
2022-08-16T22:01:13.627Z,3.20
2022-08-16T22:04:37.921Z,3.35
2022-08-16T22:07:40.678Z,3.07
2022-08-16T22:11:07.442Z,3.00
2022-08-16T22:17:10.513Z,3.00
2022-08-16T22:20:14.561Z,3.40
2022-08-16T22:23:19.377Z,3.03
2022-08-16T22:26:29.943Z,3.30
2022-08-16T22:29:33.465Z,3.47
2022-08-16T22:32:39.677Z,3.33
2022-08-16T22:35:47.382Z,3.43
2022-08-16T22:38:56.527Z,3.43
2022-08-16T22:42:00.037Z,3.33
2022-08-16T22:45:06.931Z,3.15
2022-08-16T22:48:09.749Z,3.73
2022-08-16T22:51:14.020Z,3.40
2022-08-16T22:54:47.329Z,3.83
2022-08-16T22:57:39.511Z,3.58
2022-08-16T23:00:42.833Z,3.78
2022-08-16T23:03:45.752Z,3.43
2022-08-16T23:06:49.837Z,3.30
2022-08-16T23:09:52.686Z,3.93
2022-08-16T23:12:58.179Z,4.17
2022-08-16T23:16:11.071Z,4.17
2022-08-16T23:19:16.223Z,3.80
2022-08-16T23:22:24.630Z,4.40
2022-08-16T23:25:30.611Z,4.47
2022-08-16T23:28:33.485Z,3.50
2022-08-16T23:31:36.145Z,3.50
2022-08-16T23:34:38.997Z,4.15
2022-08-16T23:37:43.133Z,4.05
2022-08-16T23:40:46.313Z,4.10
2022-08-16T23:46:51.829Z,4.10
2022-08-16T23:50:00.744Z,4.38
2022-08-16T23:53:09.991Z,4.30
2022-08-16T23:56:14.627Z,4.37
2022-08-16T23:59:17.355Z,4.47
